Time,TemperatureF,DewpointF,PressureIn,WindDirection,WindDirectionDegrees,WindSpeedMPH,WindSpeedGustMPH,Humidity,HourlyPrecipIn,Conditions,Clouds,dailyrainin,SolarRadiationWatts/m^2,SoftwareType,DateUTC
2013-09-17 00:05:00,63.2,58.9,30.24,North,360,0.0,0.0,86,0.00,CLR,CLR,0.00,0.0,WeatherDisplay:10.37,2013-09-17 04:05:00,
2013-09-17 00:09:00,63.3,59.4,30.24,North,360,0.0,0.0,87,0.00,CLR,CLR,0.00,0.0,WeatherDisplay:10.37,2013-09-17 04:09:00,
2013-09-17 00:14:00,63.2,59.6,30.24,North,360,0.0,0.0,88,0.00,CLR,CLR,0.00,0.0,WeatherDisplay:10.37,2013-09-17 04:14:00,
2013-09-17 00:20:00,63.2,59.9,30.24,North,360,0.0,0.0,89,0.00,CLR,CLR,0.00,0.0,WeatherDisplay:10.37,2013-09-17 04:20:00,
2013-09-17 00:30:00,62.8,59.5,30.24,North,360,0.0,0.0,89,0.00,CLR,CLR,0.00,0.0,WeatherDisplay:10.37,2013-09-17 04:30:00,
2013-09-17 00:35:00,62.8,59.2,30.24,North,360,0.0,0.0,88,0.00,CLR,CLR,0.00,0.0,WeatherDisplay:10.37,2013-09-17 04:35:00,
2013-09-17 00:39:00,62.8,59.5,30.24,North,360,0.0,0.0,89,0.00,CLR,CLR,0.00,0.0,WeatherDisplay:10.37,2013-09-17 04:39:00,
2013-09-17 00:45:00,62.8,59.5,30.24,North,360,0.0,0.0,89,0.00,CLR,CLR,0.00,0.0,WeatherDisplay:10.37,2013-09-17 04:45:00,
2013-09-17 00:55:00,62.8,59.5,30.24,North,360,0.0,0.0,89,0.00,CLR,CLR,0.00,0.0,WeatherDisplay:10.37,2013-09-17 04:55:00,
2013-09-17 00:59:00,62.8,59.5,30.24,North,360,0.0,1.0,89,0.00,CLR,CLR,0.00,0.0,WeatherDisplay:10.37,2013-09-17 04:59:00,
2013-09-17 01:05:00,62.8,59.5,30.24,North,360,0.0,0.0,89,0.00,CLR,CLR,0.00,0.0,WeatherDisplay:10.37,2013-09-17 05:05:00,
2013-09-17 01:10:00,62.8,59.8,30.24,North,360,0.0,0.0,90,0.00,CLR,CLR,0.00,0.0,WeatherDisplay:10.37,2013-09-17 05:10:00,
2013-09-17 01:19:00,62.6,59.9,30.24,North,360,0.0,0.0,91,0.00,CLR,CLR,0.00,0.0,WeatherDisplay:10.37,2013-09-17 05:19:00,
2013-09-17 01:24:00,62.4,59.8,30.25,North,360,0.0,1.0,91,0.00,CLR,CLR,0.00,0.0,WeatherDisplay:10.37,2013-09-17 05:24:00,
2013-09-17 01:30:00,62.4,59.7,30.24,North,360,1.0,2.0,91,0.00,CLR,CLR,0.00,0.0,WeatherDisplay:10.37,2013-09-17 05:30:00,
2013-09-17 01:40:00,62.3,59.6,30.24,North,360,2.0,6.0,91,0.00,CLR,CLR,0.00,0.0,WeatherDisplay:10.37,2013-09-17 05:40:00,
2013-09-17 01:45:00,62.4,59.4,30.24,North,360,1.0,5.0,90,0.00,CLR,CLR,0.00,0.0,WeatherDisplay:10.37,2013-09-17 05:45:00,
2013-09-17 01:50:00,62.5,59.8,30.24,North,360,0.0,0.0,91,0.00,CLR,CLR,0.00,0.0,WeatherDisplay:10.37,2013-09-17 05:50:00,
2013-09-17 01:55:00,62.5,59.5,30.24,North,360,0.0,0.0,90,0.00,CLR,CLR,0.00,0.0,WeatherDisplay:10.37,2013-09-17 05:55:00,
2013-09-17 01:59:00,62.4,59.7,30.24,North,360,0.0,4.0,91,0.00,CLR,CLR,0.00,0.0,WeatherDisplay:10.37,2013-09-17 05:59:00,
2013-09-17 02:04:00,62.3,59.3,30.24,North,360,0.0,0.0,90,0.00,CLR,CLR,0.00,0.0,WeatherDisplay:10.37,2013-09-17 06:04:00,
2013-09-17 02:10:00,62.3,59.6,30.24,North,360,0.0,3.0,91,0.00,CLR,CLR,0.00,0.0,WeatherDisplay:10.37,2013-09-17 06:10:00,
2013-09-17 02:20:00,62.4,59.4,30.24,North,360,2.0,5.0,90,0.00,CLR,CLR,0.00,0.0,WeatherDisplay:10.37,2013-09-17 06:20:00,
2013-09-17 02:29:00,62.6,59.3,30.24,North,360,3.0,7.0,89,0.00,CLR,CLR,0.00,0.0,WeatherDisplay:10.37,2013-09-17 06:29:00,
2013-09-17 02:35:00,62.8,58.9,30.24,North,360,3.0,10.0,87,0.00,CLR,CLR,0.00,0.0,WeatherDisplay:10.37,2013-09-17 06:35:00,
2013-09-17 02:40:00,62.9,58.6,30.24,North,360,3.0,9.0,86,0.00,CLR,CLR,0.00,0.0,WeatherDisplay:10.37,2013-09-17 06:40:00,
2013-09-17 02:50:00,63.0,58.8,30.25,North,360,3.0,6.0,86,0.00,CLR,CLR,0.00,0.0,WeatherDisplay:10.37,2013-09-17 06:50:00,
2013-09-17 02:55:00,63.1,58.5,30.25,North,360,5.0,7.0,85,0.00,CLR,CLR,0.00,0.0,WeatherDisplay:10.37,2013-09-17 06:55:00,
2013-09-17 03:00:00,63.1,58.5,30.25,North,360,8.0,12.0,85,0.00,CLR,CLR,0.00,0.0,WeatherDisplay:10.37,2013-09-17 07:00:00,
2013-09-17 03:05:00,63.1,58.5,30.25,North,360,6.0,10.0,85,0.00,CLR,CLR,0.00,0.0,WeatherDisplay:10.37,2013-09-17 07:05:00,
2013-09-17 03:14:00,63.0,57.8,30.25,North,360,7.0,15.0,83,0.00,CLR,CLR,0.00,0.0,WeatherDisplay:10.37,2013-09-17 07:14:00,
2013-09-17 03:19:00,63.0,58.1,30.25,North,360,8.0,12.0,84,0.00,CLR,CLR,0.00,0.0,WeatherDisplay:10.37,2013-09-17 07:19:00,
2013-09-17 03:24:00,62.9,58.0,30.25,North,360,5.0,9.0,84,0.00,CLR,CLR,0.00,0.0,WeatherDisplay:10.37,2013-09-17 07:24:00,
2013-09-17 03:29:00,62.8,57.6,30.25,North,360,6.0,10.0,83,0.00,CLR,CLR,0.00,0.0,WeatherDisplay:10.37,2013-09-17 07:29:00,
2013-09-17 03:35:00,62.8,57.9,30.25,North,360,6.0,9.0,84,0.00,CLR,CLR,0.00,0.0,WeatherDisplay:10.37,2013-09-17 07:35:00,
2013-09-17 03:40:00,62.7,57.8,30.25,North,360,5.0,10.0,84,0.00,CLR,CLR,0.00,0.0,WeatherDisplay:10.37,2013-09-17 07:40:00,
2013-09-17 03:50:00,62.6,57.7,30.24,North,360,6.0,8.0,84,0.00,CLR,CLR,0.00,0.0,WeatherDisplay:10.37,2013-09-17 07:50:00,
2013-09-17 04:00:00,62.5,57.9,30.24,North,360,3.0,7.0,85,0.00,CLR,CLR,0.00,0.0,WeatherDisplay:10.37,2013-09-17 08:00:00,
2013-09-17 04:05:00,62.4,57.8,30.24,North,360,2.0,5.0,85,0.00,CLR,CLR,0.00,0.0,WeatherDisplay:10.37,2013-09-17 08:05:00,
2013-09-17 04:10:00,62.3,58.1,30.25,North,360,2.0,7.0,86,0.00,CLR,CLR,0.00,0.0,WeatherDisplay:10.37,2013-09-17 08:10:00,
2013-09-17 04:19:00,62.0,57.8,30.25,North,360,3.0,7.0,86,0.00,CLR,CLR,0.00,0.0,WeatherDisplay:10.37,2013-09-17 08:19:00,
2013-09-17 04:24:00,62.0,57.7,30.25,North,360,3.0,6.0,86,0.00,CLR,CLR,0.00,0.0,WeatherDisplay:10.37,2013-09-17 08:24:00,
2013-09-17 04:29:00,61.8,57.9,30.24,North,360,2.0,6.0,87,0.00,CLR,CLR,0.00,0.0,WeatherDisplay:10.37,2013-09-17 08:29:00,
2013-09-17 04:35:00,61.8,57.9,30.24,North,360,6.0,12.0,87,0.00,CLR,CLR,0.00,0.0,WeatherDisplay:10.37,2013-09-17 08:35:00,
2013-09-17 04:40:00,61.7,57.5,30.25,North,360,7.0,12.0,86,0.00,CLR,CLR,0.00,0.0,WeatherDisplay:10.37,2013-09-17 08:40:00,
2013-09-17 04:50:00,61.6,57.4,30.25,North,360,2.0,7.0,86,0.00,CLR,CLR,0.00,0.0,WeatherDisplay:10.37,2013-09-17 08:50:00,
2013-09-17 05:00:00,61.4,57.5,30.25,North,360,6.0,9.0,87,0.00,CLR,CLR,0.00,0.0,WeatherDisplay:10.37,2013-09-17 09:00:00,
2013-09-17 05:05:00,61.3,57.1,30.25,North,360,6.0,10.0,86,0.00,CLR,CLR,0.00,0.0,WeatherDisplay:10.37,2013-09-17 09:05:00,
2013-09-17 05:14:00,61.1,56.9,30.25,North,360,3.0,10.0,86,0.00,CLR,CLR,0.00,0.0,WeatherDisplay:10.37,2013-09-17 09:14:00,
2013-09-17 05:20:00,61.0,56.8,30.26,North,360,5.0,7.0,86,0.00,CLR,CLR,0.00,0.0,WeatherDisplay:10.37,2013-09-17 09:20:00,
2013-09-17 05:29:00,60.8,56.6,30.26,North,360,6.0,10.0,86,0.00,CLR,CLR,0.00,0.0,WeatherDisplay:10.37,2013-09-17 09:29:00,
2013-09-17 05:35:00,60.7,56.5,30.26,North,360,5.0,12.0,86,0.00,CLR,CLR,0.00,0.0,WeatherDisplay:10.37,2013-09-17 09:35:00,
2013-09-17 05:44:00,60.6,56.4,30.26,North,360,5.0,10.0,86,0.00,CLR,CLR,0.00,0.0,WeatherDisplay:10.37,2013-09-17 09:44:00,
2013-09-17 05:50:00,60.5,56.3,30.26,North,360,3.0,12.0,86,0.00,CLR,CLR,0.00,0.0,WeatherDisplay:10.37,2013-09-17 09:50:00,
2013-09-17 06:00:00,60.3,56.1,30.26,North,360,9.0,12.0,86,0.00,CLR,CLR,0.00,0.0,WeatherDisplay:10.37,2013-09-17 10:00:00,
2013-09-17 06:10:00,60.2,56.0,30.27,North,360,5.0,9.0,86,0.00,CLR,CLR,0.00,0.0,WeatherDisplay:10.37,2013-09-17 10:10:00,
2013-09-17 06:15:00,60.1,55.9,30.27,North,360,3.0,8.0,86,0.00,CLR,CLR,0.00,0.0,WeatherDisplay:10.37,2013-09-17 10:15:00,
2013-09-17 06:20:00,60.0,55.8,30.27,North,360,7.0,10.0,86,0.00,CLR,CLR,0.00,0.0,WeatherDisplay:10.37,2013-09-17 10:20:00,
2013-09-17 06:25:00,59.9,56.0,30.27,North,360,3.0,6.0,87,0.00,CLR,CLR,0.00,0.0,WeatherDisplay:10.37,2013-09-17 10:25:00,
2013-09-17 06:30:00,59.7,55.5,30.27,North,360,3.0,10.0,86,0.00,CLR,CLR,0.00,0.0,WeatherDisplay:10.37,2013-09-17 10:30:00,
2013-09-17 06:35:00,59.6,55.7,30.27,North,360,5.0,12.0,87,0.00,CLR,CLR,0.00,0.0,WeatherDisplay:10.37,2013-09-17 10:35:00,
2013-09-17 06:45:00,59.3,55.4,30.27,North,360,2.0,6.0,87,0.00,CLR,CLR,0.00,0.0,WeatherDisplay:10.37,2013-09-17 10:45:00,
2013-09-17 06:49:00,59.1,55.3,30.27,North,360,6.0,12.0,87,0.00,CLR,CLR,0.00,0.0,WeatherDisplay:10.37,2013-09-17 10:49:00,
2013-09-17 06:55:00,59.0,55.1,30.27,North,360,7.0,12.0,87,0.00,CLR,CLR,0.00,0.0,WeatherDisplay:10.37,2013-09-17 10:55:00,
2013-09-17 06:59:00,59.0,55.1,30.27,North,360,6.0,12.0,87,0.00,OVC,OVC,0.00,0.0,WeatherDisplay:10.37,2013-09-17 10:59:00,
2013-09-17 07:04:00,59.0,55.4,30.27,North,360,3.0,6.0,88,0.00,OVC,OVC,0.00,0.0,WeatherDisplay:10.37,2013-09-17 11:04:00,
2013-09-17 07:09:00,59.0,55.1,30.27,North,360,6.0,9.0,87,0.00,OVC,OVC,0.00,0.0,WeatherDisplay:10.37,2013-09-17 11:09:00,
2013-09-17 07:15:00,59.0,55.1,30.28,North,360,6.0,12.0,87,0.00,OVC,OVC,0.00,7.0,WeatherDisplay:10.37,2013-09-17 11:15:00,
2013-09-17 07:20:00,58.8,54.9,30.28,North,360,9.0,12.0,87,0.00,CLR,CLR,0.00,12.0,WeatherDisplay:10.37,2013-09-17 11:20:00,
2013-09-17 07:30:00,58.4,54.6,30.28,North,360,6.0,9.0,87,0.00,SCT,SCT,0.00,21.0,WeatherDisplay:10.37,2013-09-17 11:30:00,
2013-09-17 07:35:00,58.3,54.4,30.28,North,360,5.0,7.0,87,0.00,BKN,BKN,0.00,25.0,WeatherDisplay:10.37,2013-09-17 11:35:00,
2013-09-17 07:40:00,58.2,54.4,30.29,North,360,6.0,10.0,87,0.00,BKN,BKN,0.00,28.0,WeatherDisplay:10.37,2013-09-17 11:40:00,
2013-09-17 07:50:00,58.1,54.2,30.29,North,360,7.0,12.0,87,0.00,BKN,BKN,0.00,37.0,WeatherDisplay:10.37,2013-09-17 11:50:00,
2013-09-17 08:00:00,58.1,54.2,30.29,North,360,3.0,12.0,87,0.00,OVC,OVC,0.00,26.0,WeatherDisplay:10.37,2013-09-17 12:00:00,
2013-09-17 08:10:00,58.0,54.2,30.30,North,360,8.0,12.0,87,0.00,OVC,OVC,0.00,37.0,WeatherDisplay:10.37,2013-09-17 12:10:00,
2013-09-17 08:15:00,58.0,54.2,30.30,North,360,6.0,14.0,87,0.00,OVC,OVC,0.00,37.0,WeatherDisplay:10.37,2013-09-17 12:15:00,
2013-09-17 08:19:00,57.9,54.1,30.30,North,360,6.0,12.0,87,0.00,OVC,OVC,0.00,39.0,WeatherDisplay:10.37,2013-09-17 12:19:00,
2013-09-17 08:25:00,57.9,54.4,30.30,North,360,6.0,10.0,88,0.00,BKN,BKN,0.00,83.0,WeatherDisplay:10.37,2013-09-17 12:25:00,
2013-09-17 08:30:00,58.0,54.5,30.30,North,360,5.0,9.0,88,0.00,BKN,BKN,0.00,97.0,WeatherDisplay:10.37,2013-09-17 12:30:00,
2013-09-17 08:34:00,58.0,54.2,30.30,North,360,6.0,7.0,87,0.00,BKN,BKN,0.00,98.0,WeatherDisplay:10.37,2013-09-17 12:34:00,
2013-09-17 08:39:00,58.1,54.9,30.30,North,360,5.0,10.0,89,0.00,OVC,OVC,0.00,81.0,WeatherDisplay:10.37,2013-09-17 12:39:00,
2013-09-17 08:44:00,58.2,55.0,30.31,North,360,5.0,12.0,89,0.00,OVC,OVC,0.00,67.0,WeatherDisplay:10.37,2013-09-17 12:44:00,
2013-09-17 08:50:00,58.2,54.7,30.31,North,360,5.0,10.0,88,0.00,OVC,OVC,0.00,65.0,WeatherDisplay:10.37,2013-09-17 12:50:00,
2013-09-17 08:55:00,58.1,54.6,30.31,North,360,3.0,7.0,88,0.00,OVC,OVC,0.00,62.0,WeatherDisplay:10.37,2013-09-17 12:55:00,
2013-09-17 09:04:00,57.8,54.3,30.31,North,360,5.0,12.0,88,0.00,OVC,OVC,0.00,49.0,WeatherDisplay:10.37,2013-09-17 13:04:00,
2013-09-17 09:09:00,57.7,54.5,30.32,North,360,8.0,12.0,89,0.00,OVC,OVC,0.00,40.0,WeatherDisplay:10.37,2013-09-17 13:09:00,
2013-09-17 09:15:00,57.6,54.4,30.32,North,360,6.0,10.0,89,0.00,OVC,OVC,0.00,51.0,WeatherDisplay:10.37,2013-09-17 13:15:00,
2013-09-17 09:20:00,57.5,54.3,30.32,North,360,6.0,12.0,89,0.00,OVC,OVC,0.00,76.0,WeatherDisplay:10.37,2013-09-17 13:20:00,
2013-09-17 09:29:00,57.5,54.0,30.32,North,360,7.0,12.0,88,0.00,OVC,OVC,0.00,93.0,WeatherDisplay:10.37,2013-09-17 13:29:00,
2013-09-17 09:35:00,57.5,54.0,30.32,North,360,8.0,12.0,88,0.00,OVC,OVC,0.00,120.0,WeatherDisplay:10.37,2013-09-17 13:35:00,
2013-09-17 09:40:00,57.6,53.8,30.32,North,360,8.0,14.0,87,0.00,OVC,OVC,0.00,148.0,WeatherDisplay:10.37,2013-09-17 13:40:00,
2013-09-17 09:50:00,57.6,52.5,30.33,North,360,9.0,14.0,83,0.00,OVC,OVC,0.00,151.0,WeatherDisplay:10.37,2013-09-17 13:50:00,
2013-09-17 09:55:00,57.6,52.5,30.33,North,360,9.0,15.0,83,0.00,OVC,OVC,0.00,171.0,WeatherDisplay:10.37,2013-09-17 13:55:00,
2013-09-17 09:59:00,57.6,51.8,30.33,North,360,13.0,16.0,81,0.00,OVC,OVC,0.00,200.0,WeatherDisplay:10.37,2013-09-17 13:59:00,
2013-09-17 10:04:00,57.5,51.4,30.32,North,360,12.0,16.0,80,0.00,OVC,OVC,0.00,160.0,WeatherDisplay:10.37,2013-09-17 14:04:00,
2013-09-17 10:09:00,57.5,52.0,30.33,North,360,5.0,13.0,82,0.00,OVC,OVC,0.00,148.0,WeatherDisplay:10.37,2013-09-17 14:09:00,
2013-09-17 10:14:00,57.6,52.5,30.33,North,360,6.0,12.0,83,0.00,OVC,OVC,0.00,153.0,WeatherDisplay:10.37,2013-09-17 14:14:00,
2013-09-17 10:20:00,57.6,52.1,30.33,North,360,8.0,12.0,82,0.00,OVC,OVC,0.00,135.0,WeatherDisplay:10.37,2013-09-17 14:20:00,
2013-09-17 10:25:00,57.6,52.5,30.33,North,360,8.0,13.0,83,0.00,OVC,OVC,0.00,148.0,WeatherDisplay:10.37,2013-09-17 14:25:00,
2013-09-17 10:30:00,57.6,52.5,30.33,North,360,5.0,13.0,83,0.00,OVC,OVC,0.00,176.0,WeatherDisplay:10.37,2013-09-17 14:30:00,
2013-09-17 10:40:00,57.9,52.4,30.33,North,360,5.0,9.0,82,0.00,BKN,BKN,0.00,285.0,WeatherDisplay:10.37,2013-09-17 14:40:00,
2013-09-17 10:45:00,58.2,52.4,30.33,North,360,3.0,10.0,81,0.00,BKN,BKN,0.00,301.0,WeatherDisplay:10.37,2013-09-17 14:45:00,
2013-09-17 10:50:00,58.6,52.8,30.33,North,360,5.0,12.0,81,0.00,BKN,BKN,0.00,330.0,WeatherDisplay:10.37,2013-09-17 14:50:00,
2013-09-17 10:55:00,58.9,53.4,30.33,North,360,3.0,5.0,82,0.00,BKN,BKN,0.00,353.0,WeatherDisplay:10.37,2013-09-17 14:55:00,
2013-09-17 11:00:00,59.0,53.8,30.33,North,360,3.0,6.0,83,0.00,BKN,BKN,0.00,339.0,WeatherDisplay:10.37,2013-09-17 15:00:00,
2013-09-17 11:04:00,59.3,53.8,30.33,North,360,6.0,12.0,82,0.00,BKN,BKN,0.00,359.0,WeatherDisplay:10.37,2013-09-17 15:04:00,
2013-09-17 11:09:00,59.6,54.1,30.33,North,360,5.0,10.0,82,0.00,SCT,SCT,0.00,459.0,WeatherDisplay:10.37,2013-09-17 15:09:00,
2013-09-17 11:14:00,60.0,54.2,30.33,North,360,7.0,13.0,81,0.00,BKN,BKN,0.00,404.0,WeatherDisplay:10.37,2013-09-17 15:14:00,
2013-09-17 11:19:00,60.3,53.8,30.33,North,360,6.0,10.0,79,0.00,BKN,BKN,0.00,320.0,WeatherDisplay:10.37,2013-09-17 15:19:00,
2013-09-17 11:24:00,60.2,53.0,30.33,North,360,8.0,14.0,77,0.00,BKN,BKN,0.00,392.0,WeatherDisplay:10.37,2013-09-17 15:24:00,
2013-09-17 11:29:00,60.0,52.8,30.33,North,360,6.0,13.0,77,0.00,BKN,BKN,0.00,431.0,WeatherDisplay:10.37,2013-09-17 15:29:00,
2013-09-17 11:35:00,60.0,53.5,30.33,North,360,7.0,12.0,79,0.00,BKN,BKN,0.00,438.0,WeatherDisplay:10.37,2013-09-17 15:35:00,
2013-09-17 11:40:00,60.2,53.0,30.33,North,360,7.0,14.0,77,0.00,SCT,SCT,0.00,489.0,WeatherDisplay:10.37,2013-09-17 15:40:00,
2013-09-17 11:49:00,60.6,52.6,30.33,North,360,7.0,12.0,75,0.00,BKN,BKN,0.00,408.0,WeatherDisplay:10.37,2013-09-17 15:49:00,
2013-09-17 11:54:00,60.7,53.1,30.34,North,360,3.0,10.0,76,0.00,BKN,BKN,0.00,417.0,WeatherDisplay:10.37,2013-09-17 15:54:00,
2013-09-17 11:59:00,60.8,53.6,30.33,North,360,1.0,6.0,77,0.00,BKN,BKN,0.00,445.0,WeatherDisplay:10.37,2013-09-17 15:59:00,
2013-09-17 12:05:00,61.2,53.5,30.33,North,360,3.0,13.0,76,0.00,BKN,BKN,0.00,438.0,WeatherDisplay:10.37,2013-09-17 16:05:00,
2013-09-17 12:14:00,61.4,53.0,30.33,North,360,6.0,15.0,74,0.00,BKN,BKN,0.00,387.0,WeatherDisplay:10.37,2013-09-17 16:14:00,
2013-09-17 12:25:00,61.3,53.3,30.33,North,360,1.0,8.0,75,0.00,BKN,BKN,0.00,497.0,WeatherDisplay:10.37,2013-09-17 16:25:00,
2013-09-17 12:30:00,61.6,53.6,30.33,North,360,2.0,5.0,75,0.00,BKN,BKN,0.00,425.0,WeatherDisplay:10.37,2013-09-17 16:30:00,
2013-09-17 12:35:00,61.6,53.6,30.33,North,360,5.0,8.0,75,0.00,BKN,BKN,0.00,425.0,WeatherDisplay:10.37,2013-09-17 16:35:00,
2013-09-17 12:40:00,61.2,52.5,30.33,North,360,7.0,10.0,73,0.00,BKN,BKN,0.00,439.0,WeatherDisplay:10.37,2013-09-17 16:40:00,
2013-09-17 12:45:00,60.9,52.9,30.33,North,360,7.0,12.0,75,0.00,OVC,OVC,0.00,348.0,WeatherDisplay:10.37,2013-09-17 16:45:00,
2013-09-17 12:54:00,60.7,52.7,30.33,North,360,6.0,10.0,75,0.00,OVC,OVC,0.00,322.0,WeatherDisplay:10.37,2013-09-17 16:54:00,
2013-09-17 12:59:00,60.7,53.4,30.33,North,360,2.0,10.0,77,0.00,OVC,OVC,0.00,329.0,WeatherDisplay:10.37,2013-09-17 16:59:00,
2013-09-17 13:05:00,60.9,52.6,30.32,North,360,7.0,10.0,74,0.00,OVC,OVC,0.00,355.0,WeatherDisplay:10.37,2013-09-17 17:05:00,
2013-09-17 13:09:00,61.0,53.0,30.32,North,360,3.0,13.0,75,0.00,OVC,OVC,0.00,345.0,WeatherDisplay:10.37,2013-09-17 17:09:00,
2013-09-17 13:15:00,61.1,53.1,30.32,North,360,5.0,9.0,75,0.00,OVC,OVC,0.00,366.0,WeatherDisplay:10.37,2013-09-17 17:15:00,
2013-09-17 13:20:00,61.1,53.5,30.32,North,360,0.0,7.0,76,0.00,BKN,BKN,0.00,399.0,WeatherDisplay:10.37,2013-09-17 17:20:00,
2013-09-17 13:25:00,61.6,53.2,30.32,North,360,1.0,4.0,74,0.00,BKN,BKN,0.00,380.0,WeatherDisplay:10.37,2013-09-17 17:25:00,
2013-09-17 13:30:00,61.7,53.0,30.32,North,360,2.0,6.0,73,0.00,BKN,BKN,0.00,448.0,WeatherDisplay:10.37,2013-09-17 17:30:00,
2013-09-17 13:40:00,61.9,52.8,30.32,North,360,3.0,9.0,72,0.00,BKN,BKN,0.00,527.0,WeatherDisplay:10.37,2013-09-17 17:40:00,
2013-09-17 13:49:00,62.5,53.7,30.31,North,360,1.0,5.0,73,0.00,BKN,BKN,0.00,522.0,WeatherDisplay:10.37,2013-09-17 17:49:00,
2013-09-17 13:55:00,62.5,53.4,30.31,North,360,8.0,12.0,72,0.00,SCT,SCT,0.00,592.0,WeatherDisplay:10.37,2013-09-17 17:55:00,
2013-09-17 14:05:00,63.2,54.7,30.30,North,360,2.0,7.0,74,0.00,FEW,FEW,0.00,838.0,WeatherDisplay:10.37,2013-09-17 18:05:00,
2013-09-17 14:10:00,63.9,54.7,30.30,North,360,2.0,6.0,72,0.00,SCT,SCT,0.00,694.0,WeatherDisplay:10.37,2013-09-17 18:10:00,
2013-09-17 14:15:00,64.4,55.2,30.30,North,360,3.0,7.0,72,0.00,SCT,SCT,0.00,554.0,WeatherDisplay:10.37,2013-09-17 18:15:00,
2013-09-17 14:20:00,64.2,53.0,30.30,North,360,5.0,10.0,67,0.00,BKN,BKN,0.00,459.0,WeatherDisplay:10.37,2013-09-17 18:20:00,
2013-09-17 14:29:00,64.0,54.8,30.30,North,360,2.0,5.0,72,0.00,SCT,SCT,0.00,629.0,WeatherDisplay:10.37,2013-09-17 18:29:00,
2013-09-17 14:34:00,64.0,54.0,30.30,North,360,1.0,5.0,70,0.00,SCT,SCT,0.00,566.0,WeatherDisplay:10.37,2013-09-17 18:34:00,
2013-09-17 14:40:00,64.3,54.7,30.30,North,360,1.0,4.0,71,0.00,BKN,BKN,0.00,429.0,WeatherDisplay:10.37,2013-09-17 18:40:00,
2013-09-17 14:50:00,64.5,54.5,30.30,North,360,5.0,10.0,70,0.00,SCT,SCT,0.00,596.0,WeatherDisplay:10.37,2013-09-17 18:50:00,
2013-09-17 14:59:00,64.3,54.7,30.29,North,360,2.0,6.0,71,0.00,OVC,OVC,0.00,320.0,WeatherDisplay:10.37,2013-09-17 18:59:00,
2013-09-17 15:04:00,64.1,54.5,30.29,North,360,3.0,8.0,71,0.00,OVC,OVC,0.00,299.0,WeatherDisplay:10.37,2013-09-17 19:04:00,
2013-09-17 15:09:00,63.8,55.4,30.29,North,360,0.0,7.0,74,0.00,OVC,OVC,0.00,251.0,WeatherDisplay:10.37,2013-09-17 19:09:00,
2013-09-17 15:15:00,63.8,54.6,30.29,North,360,0.0,6.0,72,0.00,OVC,OVC,0.00,265.0,WeatherDisplay:10.37,2013-09-17 19:15:00,
2013-09-17 15:24:00,63.7,55.2,30.29,North,360,0.0,5.0,74,0.00,OVC,OVC,0.00,262.0,WeatherDisplay:10.37,2013-09-17 19:24:00,
2013-09-17 15:29:00,63.6,54.4,30.28,North,360,1.0,4.0,72,0.00,OVC,OVC,0.00,278.0,WeatherDisplay:10.37,2013-09-17 19:29:00,
2013-09-17 15:39:00,63.5,54.3,30.28,North,360,2.0,4.0,72,0.00,SCT,SCT,0.00,464.0,WeatherDisplay:10.37,2013-09-17 19:39:00,
2013-09-17 15:50:00,63.8,55.4,30.28,North,360,3.0,5.0,74,0.00,SCT,SCT,0.00,418.0,WeatherDisplay:10.37,2013-09-17 19:50:00,
2013-09-17 15:55:00,63.9,53.9,30.28,North,360,2.0,7.0,70,0.00,FEW,FEW,0.00,561.0,WeatherDisplay:10.37,2013-09-17 19:55:00,
2013-09-17 16:04:00,63.9,55.1,30.27,North,360,1.0,7.0,73,0.00,BKN,BKN,0.00,316.0,WeatherDisplay:10.37,2013-09-17 20:04:00,
2013-09-17 16:10:00,63.7,54.5,30.27,North,360,1.0,4.0,72,0.00,BKN,BKN,0.00,285.0,WeatherDisplay:10.37,2013-09-17 20:10:00,
2013-09-17 16:20:00,63.6,54.4,30.27,North,360,3.0,7.0,72,0.00,BKN,BKN,0.00,297.0,WeatherDisplay:10.37,2013-09-17 20:20:00,
2013-09-17 16:30:00,63.3,55.6,30.27,North,360,3.0,5.0,76,0.00,BKN,BKN,0.00,308.0,WeatherDisplay:10.37,2013-09-17 20:30:00,
2013-09-17 16:39:00,63.2,54.8,30.26,North,360,2.0,6.0,74,0.00,BKN,BKN,0.00,264.0,WeatherDisplay:10.37,2013-09-17 20:39:00,
2013-09-17 16:44:00,63.1,55.0,30.26,North,360,3.0,6.0,75,0.00,BKN,BKN,0.00,253.0,WeatherDisplay:10.37,2013-09-17 20:44:00,
2013-09-17 16:49:00,63.1,55.4,30.26,North,360,2.0,6.0,76,0.00,BKN,BKN,0.00,250.0,WeatherDisplay:10.37,2013-09-17 20:49:00,
2013-09-17 16:55:00,63.0,55.3,30.26,North,360,5.0,7.0,76,0.00,BKN,BKN,0.00,213.0,WeatherDisplay:10.37,2013-09-17 20:55:00,
2013-09-17 16:59:00,62.9,55.2,30.26,North,360,1.0,6.0,76,0.00,BKN,BKN,0.00,218.0,WeatherDisplay:10.37,2013-09-17 20:59:00,
2013-09-17 17:05:00,62.8,55.4,30.26,North,360,2.0,5.0,77,0.00,BKN,BKN,0.00,209.0,WeatherDisplay:10.37,2013-09-17 21:05:00,
2013-09-17 17:10:00,62.7,55.4,30.26,North,360,0.0,4.0,77,0.00,BKN,BKN,0.00,200.0,WeatherDisplay:10.37,2013-09-17 21:10:00,
2013-09-17 17:15:00,62.6,55.6,30.27,North,360,1.0,5.0,78,0.00,BKN,BKN,0.00,197.0,WeatherDisplay:10.37,2013-09-17 21:15:00,
2013-09-17 17:20:00,62.5,55.5,30.27,North,360,2.0,6.0,78,0.00,BKN,BKN,0.00,197.0,WeatherDisplay:10.37,2013-09-17 21:20:00,
2013-09-17 17:24:00,62.3,56.0,30.26,North,360,1.0,4.0,80,0.00,BKN,BKN,0.00,204.0,WeatherDisplay:10.37,2013-09-17 21:24:00,
2013-09-17 17:30:00,62.3,55.4,30.26,North,360,2.0,4.0,78,0.00,BKN,BKN,0.00,206.0,WeatherDisplay:10.37,2013-09-17 21:30:00,
2013-09-17 17:34:00,62.3,55.4,30.26,North,360,1.0,4.0,78,0.00,SCT,SCT,0.00,223.0,WeatherDisplay:10.37,2013-09-17 21:34:00,
2013-09-17 17:40:00,62.4,55.8,30.26,North,360,1.0,4.0,79,0.00,SCT,SCT,0.00,204.0,WeatherDisplay:10.37,2013-09-17 21:40:00,
2013-09-17 17:50:00,62.4,55.4,30.26,North,360,2.0,9.0,78,0.00,SCT,SCT,0.00,209.0,WeatherDisplay:10.37,2013-09-17 21:50:00,
2013-09-17 17:55:00,62.3,55.3,30.26,North,360,3.0,6.0,78,0.00,SCT,SCT,0.00,176.0,WeatherDisplay:10.37,2013-09-17 21:55:00,
2013-09-17 18:00:00,62.1,55.5,30.26,North,360,3.0,6.0,79,0.00,BKN,BKN,0.00,142.0,WeatherDisplay:10.37,2013-09-17 22:00:00,
2013-09-17 18:05:00,61.8,55.6,30.26,North,360,3.0,7.0,80,0.00,BKN,BKN,0.00,128.0,WeatherDisplay:10.37,2013-09-17 22:05:00,
2013-09-17 18:09:00,61.6,55.4,30.26,North,360,2.0,5.0,80,0.00,BKN,BKN,0.00,120.0,WeatherDisplay:10.37,2013-09-17 22:09:00,
2013-09-17 18:20:00,61.3,55.4,30.26,North,360,2.0,5.0,81,0.00,SCT,SCT,0.00,120.0,WeatherDisplay:10.37,2013-09-17 22:20:00,
2013-09-17 18:30:00,61.1,55.6,30.26,North,360,2.0,5.0,82,0.00,SCT,SCT,0.00,109.0,WeatherDisplay:10.37,2013-09-17 22:30:00,
2013-09-17 18:35:00,61.0,55.5,30.26,North,360,3.0,5.0,82,0.00,SCT,SCT,0.00,98.0,WeatherDisplay:10.37,2013-09-17 22:35:00,
2013-09-17 18:40:00,60.9,55.7,30.27,North,360,2.0,4.0,83,0.00,BKN,BKN,0.00,81.0,WeatherDisplay:10.37,2013-09-17 22:40:00,
2013-09-17 18:50:00,60.5,55.6,30.27,North,360,1.0,7.0,84,0.00,BKN,BKN,0.00,51.0,WeatherDisplay:10.37,2013-09-17 22:50:00,
2013-09-17 18:55:00,60.4,55.5,30.27,North,360,2.0,6.0,84,0.00,BKN,BKN,0.00,46.0,WeatherDisplay:10.37,2013-09-17 22:55:00,
2013-09-17 18:59:00,60.2,55.7,30.27,North,360,3.0,7.0,85,0.00,BKN,BKN,0.00,37.0,WeatherDisplay:10.37,2013-09-17 22:59:00,
2013-09-17 19:05:00,60.0,55.8,30.27,North,360,3.0,6.0,86,0.00,BKN,BKN,0.00,32.0,WeatherDisplay:10.37,2013-09-17 23:05:00,
2013-09-17 19:14:00,59.8,55.6,30.26,North,360,5.0,8.0,86,0.00,OVC,OVC,0.00,19.0,WeatherDisplay:10.37,2013-09-17 23:14:00,
2013-09-17 19:20:00,59.7,55.5,30.27,North,360,5.0,5.0,86,0.00,OVC,OVC,0.00,16.0,WeatherDisplay:10.37,2013-09-17 23:20:00,
2013-09-17 19:25:00,59.5,55.3,30.26,North,360,2.0,4.0,86,0.00,OVC,OVC,0.00,11.0,WeatherDisplay:10.37,2013-09-17 23:25:00,
2013-09-17 19:30:00,59.4,55.2,30.26,North,360,3.0,7.0,86,0.00,OVC,OVC,0.00,5.0,WeatherDisplay:10.37,2013-09-17 23:30:00,
2013-09-17 19:40:00,59.0,55.1,30.27,North,360,3.0,7.0,87,0.00,OVC,OVC,0.00,0.0,WeatherDisplay:10.37,2013-09-17 23:40:00,
2013-09-17 19:50:00,59.0,55.1,30.27,North,360,2.0,5.0,87,0.00,OVC,OVC,0.00,0.0,WeatherDisplay:10.37,2013-09-17 23:50:00,
2013-09-17 19:59:00,58.7,54.9,30.27,North,360,3.0,7.0,87,0.00,CLR,CLR,0.00,0.0,WeatherDisplay:10.37,2013-09-17 23:59:00,
2013-09-17 20:05:00,58.6,55.1,30.27,North,360,2.0,7.0,88,0.00,CLR,CLR,0.00,0.0,WeatherDisplay:10.37,2013-09-18 00:05:00,
2013-09-17 20:10:00,58.5,54.6,30.27,North,360,5.0,7.0,87,0.00,CLR,CLR,0.00,0.0,WeatherDisplay:10.37,2013-09-18 00:10:00,
2013-09-17 20:15:00,58.4,54.5,30.27,North,360,5.0,14.0,87,0.00,CLR,CLR,0.00,0.0,WeatherDisplay:10.37,2013-09-18 00:15:00,
2013-09-17 20:19:00,58.3,54.1,30.28,North,360,5.0,7.0,86,0.00,CLR,CLR,0.00,0.0,WeatherDisplay:10.37,2013-09-18 00:19:00,
2013-09-17 20:25:00,58.2,54.0,30.28,North,360,2.0,7.0,86,0.00,CLR,CLR,0.00,0.0,WeatherDisplay:10.37,2013-09-18 00:25:00,
2013-09-17 20:30:00,58.1,54.0,30.28,North,360,3.0,6.0,86,0.00,CLR,CLR,0.00,0.0,WeatherDisplay:10.37,2013-09-18 00:30:00,
2013-09-17 20:34:00,58.1,54.2,30.28,North,360,5.0,9.0,87,0.00,CLR,CLR,0.00,0.0,WeatherDisplay:10.37,2013-09-18 00:34:00,
2013-09-17 20:40:00,58.1,54.2,30.28,North,360,3.0,9.0,87,0.00,CLR,CLR,0.00,0.0,WeatherDisplay:10.37,2013-09-18 00:40:00,
2013-09-17 20:50:00,58.0,53.8,30.29,North,360,5.0,6.0,86,0.00,CLR,CLR,0.00,0.0,WeatherDisplay:10.37,2013-09-18 00:50:00,
2013-09-17 21:00:00,57.9,54.1,30.29,North,360,2.0,5.0,87,0.00,CLR,CLR,0.00,0.0,WeatherDisplay:10.37,2013-09-18 01:00:00,
2013-09-17 21:05:00,57.9,54.1,30.29,North,360,2.0,4.0,87,0.00,CLR,CLR,0.00,0.0,WeatherDisplay:10.37,2013-09-18 01:05:00,
2013-09-17 21:10:00,57.9,54.1,30.30,North,360,3.0,5.0,87,0.00,CLR,CLR,0.00,0.0,WeatherDisplay:10.37,2013-09-18 01:10:00,
2013-09-17 21:15:00,58.0,54.2,30.30,North,360,2.0,5.0,87,0.00,CLR,CLR,0.00,0.0,WeatherDisplay:10.37,2013-09-18 01:15:00,
2013-09-17 21:24:00,58.1,53.9,30.30,North,360,2.0,5.0,86,0.00,CLR,CLR,0.00,0.0,WeatherDisplay:10.37,2013-09-18 01:24:00,
2013-09-17 21:29:00,58.1,53.9,30.30,North,360,2.0,5.0,86,0.00,CLR,CLR,0.00,0.0,WeatherDisplay:10.37,2013-09-18 01:29:00,
2013-09-17 21:35:00,58.1,53.9,30.30,North,360,1.0,4.0,86,0.00,CLR,CLR,0.00,0.0,WeatherDisplay:10.37,2013-09-18 01:35:00,
2013-09-17 21:40:00,58.0,53.9,30.30,North,360,2.0,4.0,86,0.00,CLR,CLR,0.00,0.0,WeatherDisplay:10.37,2013-09-18 01:40:00,
2013-09-17 21:45:00,58.0,54.2,30.30,North,360,2.0,5.0,87,0.00,CLR,CLR,0.00,0.0,WeatherDisplay:10.37,2013-09-18 01:45:00,
2013-09-17 21:50:00,58.0,54.2,30.30,North,360,3.0,6.0,87,0.00,CLR,CLR,0.00,0.0,WeatherDisplay:10.37,2013-09-18 01:50:00,
2013-09-17 21:55:00,57.9,54.1,30.30,North,360,1.0,4.0,87,0.00,CLR,CLR,0.00,0.0,WeatherDisplay:10.37,2013-09-18 01:55:00,
2013-09-17 21:59:00,57.8,54.3,30.30,North,360,2.0,5.0,88,0.00,CLR,CLR,0.00,0.0,WeatherDisplay:10.37,2013-09-18 01:59:00,
2013-09-17 22:05:00,57.8,54.0,30.30,North,360,2.0,5.0,87,0.00,CLR,CLR,0.00,0.0,WeatherDisplay:10.37,2013-09-18 02:05:00,
2013-09-17 22:10:00,57.9,54.1,30.30,North,360,2.0,5.0,87,0.00,CLR,CLR,0.00,0.0,WeatherDisplay:10.37,2013-09-18 02:10:00,
2013-09-17 22:20:00,57.9,54.1,30.31,North,360,2.0,4.0,87,0.00,CLR,CLR,0.00,0.0,WeatherDisplay:10.37,2013-09-18 02:20:00,
2013-09-17 22:25:00,57.9,54.3,30.31,North,360,2.0,5.0,88,0.00,CLR,CLR,0.00,0.0,WeatherDisplay:10.37,2013-09-18 02:25:00,
2013-09-17 22:30:00,57.8,54.0,30.31,North,360,1.0,4.0,87,0.00,CLR,CLR,0.00,0.0,WeatherDisplay:10.37,2013-09-18 02:30:00,
2013-09-17 22:39:00,57.8,54.0,30.31,North,360,3.0,5.0,87,0.00,CLR,CLR,0.00,0.0,WeatherDisplay:10.37,2013-09-18 02:39:00,
2013-09-17 22:44:00,57.8,54.3,30.30,North,360,2.0,6.0,88,0.00,CLR,CLR,0.00,0.0,WeatherDisplay:10.37,2013-09-18 02:44:00,
2013-09-17 22:54:00,57.9,54.1,30.31,North,360,1.0,4.0,87,0.00,CLR,CLR,0.00,0.0,WeatherDisplay:10.37,2013-09-18 02:54:00,
2013-09-17 23:00:00,57.9,54.1,30.31,North,360,2.0,4.0,87,0.00,CLR,CLR,0.00,0.0,WeatherDisplay:10.37,2013-09-18 03:00:00,
2013-09-17 23:05:00,57.9,54.1,30.31,North,360,2.0,4.0,87,0.00,CLR,CLR,0.00,0.0,WeatherDisplay:10.37,2013-09-18 03:05:00,
2013-09-17 23:10:00,57.9,54.1,30.31,North,360,2.0,5.0,87,0.00,CLR,CLR,0.00,0.0,WeatherDisplay:10.37,2013-09-18 03:10:00,
2013-09-17 23:15:00,57.9,54.1,30.31,North,360,0.0,3.0,87,0.00,CLR,CLR,0.00,0.0,WeatherDisplay:10.37,2013-09-18 03:15:00,
2013-09-17 23:20:00,57.9,54.1,30.31,North,360,3.0,4.0,87,0.00,CLR,CLR,0.00,0.0,WeatherDisplay:10.37,2013-09-18 03:20:00,
2013-09-17 23:29:00,57.9,54.1,30.31,North,360,1.0,3.0,87,0.00,CLR,CLR,0.00,0.0,WeatherDisplay:10.37,2013-09-18 03:29:00,
2013-09-17 23:34:00,57.9,54.1,30.31,North,360,2.0,3.0,87,0.00,CLR,CLR,0.00,0.0,WeatherDisplay:10.37,2013-09-18 03:34:00,
2013-09-17 23:39:00,57.9,54.1,30.31,North,360,2.0,4.0,87,0.00,CLR,CLR,0.00,0.0,WeatherDisplay:10.37,2013-09-18 03:39:00,
2013-09-17 23:45:00,57.9,54.1,30.31,North,360,2.0,5.0,87,0.00,CLR,CLR,0.00,0.0,WeatherDisplay:10.37,2013-09-18 03:45:00,
2013-09-17 23:54:00,57.8,54.0,30.30,North,360,1.0,4.0,87,0.00,CLR,CLR,0.00,0.0,WeatherDisplay:10.37,2013-09-18 03:54:00,